Time,TemperatureF,DewpointF,PressureIn,WindDirection,WindDirectionDegrees,WindSpeedMPH,WindSpeedGustMPH,Humidity,HourlyPrecipIn,Conditions,Clouds,dailyrainin,SoftwareType,DateUTC
2013-01-06 00:00:00,37.6,35.7,29.88,SE,135,0.0,0.0,93,0.02,RA,,0.00,WeatherDisplay:10.37,2013-01-06 08:00:00,
2013-01-06 00:05:00,37.6,35.7,29.88,SE,135,2.7,2.7,93,0.02,RA,,0.00,WeatherDisplay:10.37,2013-01-06 08:05:00,
2013-01-06 00:10:00,37.6,35.7,29.88,SE,135,0.0,0.0,93,0.02,CLR,,0.00,WeatherDisplay:10.37,2013-01-06 08:10:00,
2013-01-06 00:15:00,37.8,35.9,29.89,SSE,158,2.3,0.0,93,0.02,CLR,,0.00,WeatherDisplay:10.37,2013-01-06 08:15:00,
2013-01-06 00:20:00,37.6,35.7,29.89,SE,135,0.0,0.0,93,0.02,CLR,,0.00,WeatherDisplay:10.37,2013-01-06 08:20:00,
2013-01-06 00:25:00,37.6,35.7,29.89,SE,135,0.0,0.0,93,0.00,CLR,,0.00,WeatherDisplay:10.37,2013-01-06 08:25:00,
2013-01-06 00:30:00,37.6,35.7,29.89,SE,135,0.0,0.0,93,0.00,CLR,,0.00,WeatherDisplay:10.37,2013-01-06 08:30:00,
2013-01-06 00:35:00,37.6,35.7,29.89,SE,135,0.0,0.0,93,0.00,CLR,,0.00,WeatherDisplay:10.37,2013-01-06 08:35:00,
2013-01-06 00:40:00,37.6,36.0,29.89,SSE,158,0.0,0.0,94,0.00,CLR,,0.00,WeatherDisplay:10.37,2013-01-06 08:40:00,
2013-01-06 00:45:00,37.6,36.0,29.89,SSE,158,0.0,0.0,94,0.00,CLR,,0.00,WeatherDisplay:10.37,2013-01-06 08:45:00,
2013-01-06 00:50:00,37.6,36.0,29.88,SSE,158,0.0,0.0,94,0.00,CLR,,0.00,WeatherDisplay:10.37,2013-01-06 08:50:00,
2013-01-06 00:55:00,37.6,36.0,29.88,SSE,158,0.0,0.0,94,0.00,CLR,,0.00,WeatherDisplay:10.37,2013-01-06 08:55:00,
2013-01-06 01:00:00,37.6,36.0,29.88,SSE,158,0.0,0.0,94,0.00,CLR,,0.00,WeatherDisplay:10.37,2013-01-06 09:00:00,
2013-01-06 01:05:00,37.6,36.0,29.88,SSE,158,0.0,0.0,94,0.00,CLR,,0.00,WeatherDisplay:10.37,2013-01-06 09:05:00,
2013-01-06 01:10:00,37.4,35.8,29.88,SSE,158,0.0,0.0,94,0.00,CLR,,0.00,WeatherDisplay:10.37,2013-01-06 09:10:00,
2013-01-06 01:15:00,37.2,35.7,29.88,SSE,158,0.0,0.0,94,0.00,CLR,,0.00,WeatherDisplay:10.37,2013-01-06 09:15:00,
2013-01-06 01:20:00,37.0,35.5,29.88,SSE,158,0.0,0.0,94,0.00,CLR,,0.00,WeatherDisplay:10.37,2013-01-06 09:20:00,
2013-01-06 01:25:00,36.9,35.3,29.88,SSE,158,0.0,0.0,94,0.00,CLR,,0.00,WeatherDisplay:10.37,2013-01-06 09:25:00,
2013-01-06 01:30:00,36.5,34.9,29.88,SSE,158,0.0,0.0,94,0.00,CLR,,0.00,WeatherDisplay:10.37,2013-01-06 09:30:00,
2013-01-06 01:35:00,36.3,34.8,29.89,SSE,158,0.0,0.0,94,0.00,CLR,,0.00,WeatherDisplay:10.37,2013-01-06 09:35:00,
2013-01-06 01:40:00,36.1,34.6,29.89,SSE,158,0.0,0.0,94,0.00,CLR,,0.00,WeatherDisplay:10.37,2013-01-06 09:40:00,
2013-01-06 01:45:00,36.1,34.6,29.89,SSE,158,0.0,0.0,94,0.00,CLR,,0.00,WeatherDisplay:10.37,2013-01-06 09:45:00,
2013-01-06 01:50:00,36.1,34.6,29.89,SSE,158,0.0,0.0,94,0.00,CLR,,0.00,WeatherDisplay:10.37,2013-01-06 09:50:00,
2013-01-06 01:55:00,36.0,34.4,29.89,SSE,158,0.0,0.0,94,0.00,CLR,,0.00,WeatherDisplay:10.37,2013-01-06 09:55:00,
2013-01-06 02:00:00,36.1,34.6,29.89,SSE,158,0.0,0.0,94,0.00,CLR,,0.00,WeatherDisplay:10.37,2013-01-06 10:00:00,
2013-01-06 02:05:00,36.1,34.6,29.90,SSE,158,0.0,0.0,94,0.00,CLR,,0.00,WeatherDisplay:10.37,2013-01-06 10:05:00,
2013-01-06 02:10:00,36.3,34.8,29.90,SSE,158,0.0,0.0,94,0.00,CLR,,0.00,WeatherDisplay:10.37,2013-01-06 10:10:00,
2013-01-06 02:15:00,36.3,34.8,29.91,SSE,158,0.0,0.0,94,0.00,CLR,,0.00,WeatherDisplay:10.37,2013-01-06 10:15:00,
2013-01-06 02:20:00,36.5,34.9,29.91,SSE,158,0.0,0.0,94,0.00,CLR,,0.00,WeatherDisplay:10.37,2013-01-06 10:20:00,
2013-01-06 02:26:00,36.7,35.1,29.91,SSE,158,0.0,0.0,94,0.00,CLR,,0.00,WeatherDisplay:10.37,2013-01-06 10:26:00,
2013-01-06 02:31:00,36.7,35.1,29.91,SSE,158,0.0,0.0,94,0.00,CLR,,0.00,WeatherDisplay:10.37,2013-01-06 10:31:00,
2013-01-06 02:36:00,36.9,35.3,29.91,SSE,158,0.0,0.0,94,0.00,CLR,,0.00,WeatherDisplay:10.37,2013-01-06 10:36:00,
2013-01-06 02:41:00,37.0,35.5,29.91,SSE,158,0.0,0.0,94,0.00,CLR,,0.00,WeatherDisplay:10.37,2013-01-06 10:41:00,
2013-01-06 02:46:00,37.0,35.5,29.91,SSE,158,0.0,0.0,94,0.00,CLR,,0.00,WeatherDisplay:10.37,2013-01-06 10:46:00,
2013-01-06 02:51:00,37.2,35.7,29.91,SSE,158,0.0,0.0,94,0.00,CLR,,0.00,WeatherDisplay:10.37,2013-01-06 10:51:00,
2013-01-06 02:56:00,37.2,35.7,29.91,SSE,158,0.0,0.0,94,0.00,CLR,,0.00,WeatherDisplay:10.37,2013-01-06 10:56:00,
2013-01-06 03:01:00,37.2,35.7,29.91,SSE,158,0.0,0.0,94,0.00,CLR,,0.00,WeatherDisplay:10.37,2013-01-06 11:01:00,
2013-01-06 03:06:00,37.2,35.7,29.91,SSE,158,0.0,0.0,94,0.00,CLR,,0.00,WeatherDisplay:10.37,2013-01-06 11:06:00,
2013-01-06 03:11:00,37.2,35.9,29.91,SSE,158,0.0,0.0,95,0.00,CLR,,0.00,WeatherDisplay:10.37,2013-01-06 11:11:00,
2013-01-06 03:16:00,37.4,36.1,29.91,SSE,158,0.0,0.0,95,0.00,CLR,,0.00,WeatherDisplay:10.37,2013-01-06 11:16:00,
2013-01-06 03:21:00,37.4,36.1,29.91,SSE,158,0.0,0.0,95,0.00,CLR,,0.00,WeatherDisplay:10.37,2013-01-06 11:21:00,
2013-01-06 03:26:00,37.6,36.3,29.90,SSE,158,0.0,0.0,95,0.00,CLR,,0.00,WeatherDisplay:10.37,2013-01-06 11:26:00,
2013-01-06 03:31:00,37.6,36.3,29.89,SSE,158,0.0,0.0,95,0.00,CLR,,0.00,WeatherDisplay:10.37,2013-01-06 11:31:00,
2013-01-06 03:36:00,37.6,36.3,29.89,East,90,0.0,0.0,95,0.00,CLR,,0.00,WeatherDisplay:10.37,2013-01-06 11:36:00,
2013-01-06 03:41:00,37.6,36.3,29.89,East,90,0.0,0.0,95,0.00,CLR,,0.00,WeatherDisplay:10.37,2013-01-06 11:41:00,
2013-01-06 03:46:00,37.4,36.1,29.88,East,90,0.0,0.0,95,0.00,CLR,,0.00,WeatherDisplay:10.37,2013-01-06 11:46:00,
2013-01-06 03:52:00,37.2,35.9,29.89,East,90,0.0,0.0,95,0.00,CLR,,0.00,WeatherDisplay:10.37,2013-01-06 11:52:00,
2013-01-06 03:57:00,37.2,35.9,29.89,East,90,0.0,0.0,95,0.00,CLR,,0.00,WeatherDisplay:10.37,2013-01-06 11:57:00,
2013-01-06 04:03:00,37.4,36.1,29.89,East,90,0.0,0.0,95,0.00,CLR,,0.00,WeatherDisplay:10.37,2013-01-06 12:03:00,
2013-01-06 04:08:00,37.6,36.3,29.89,East,90,0.0,0.0,95,0.00,CLR,,0.00,WeatherDisplay:10.37,2013-01-06 12:08:00,
2013-01-06 04:13:00,37.6,36.3,29.88,East,90,0.0,0.0,95,0.00,CLR,,0.00,WeatherDisplay:10.37,2013-01-06 12:13:00,
2013-01-06 04:18:00,37.8,36.5,29.88,East,90,0.0,0.0,95,0.00,CLR,,0.00,WeatherDisplay:10.37,2013-01-06 12:18:00,
2013-01-06 04:23:00,37.8,36.5,29.88,East,90,0.0,0.0,95,0.00,CLR,,0.00,WeatherDisplay:10.37,2013-01-06 12:23:00,
2013-01-06 04:28:00,37.8,36.5,29.88,East,90,0.0,0.0,95,0.00,CLR,,0.00,WeatherDisplay:10.37,2013-01-06 12:28:00,
2013-01-06 04:33:00,37.8,36.5,29.88,East,90,0.0,0.0,95,0.00,CLR,,0.00,WeatherDisplay:10.37,2013-01-06 12:33:00,
2013-01-06 04:38:00,37.8,36.5,29.88,East,90,0.0,0.0,95,0.00,CLR,,0.00,WeatherDisplay:10.37,2013-01-06 12:38:00,
2013-01-06 04:43:00,37.9,36.6,29.87,East,90,0.0,0.0,95,0.00,CLR,,0.00,WeatherDisplay:10.37,2013-01-06 12:43:00,
2013-01-06 04:49:00,37.9,36.6,29.88,East,90,0.0,0.0,95,0.00,CLR,,0.00,WeatherDisplay:10.37,2013-01-06 12:49:00,
2013-01-06 04:54:00,37.9,36.6,29.88,East,90,0.0,0.0,95,0.00,CLR,,0.00,WeatherDisplay:10.37,2013-01-06 12:54:00,
2013-01-06 04:59:00,38.1,36.8,29.87,East,90,0.0,0.0,95,0.00,CLR,,0.00,WeatherDisplay:10.37,2013-01-06 12:59:00,
2013-01-06 05:05:00,38.1,36.8,29.88,East,90,0.0,0.0,95,0.00,CLR,,0.00,WeatherDisplay:10.37,2013-01-06 13:05:00,
2013-01-06 05:10:00,38.1,36.8,29.88,SE,135,0.0,0.0,95,0.00,CLR,,0.00,WeatherDisplay:10.37,2013-01-06 13:10:00,
2013-01-06 05:15:00,38.1,36.8,29.87,SE,135,0.0,0.0,95,0.00,CLR,,0.00,WeatherDisplay:10.37,2013-01-06 13:15:00,
2013-01-06 05:20:00,38.3,37.0,29.88,SSE,158,0.0,0.0,95,0.00,CLR,,0.00,WeatherDisplay:10.37,2013-01-06 13:20:00,
2013-01-06 05:25:00,38.3,37.0,29.87,SSE,158,1.2,1.2,95,0.00,CLR,,0.00,WeatherDisplay:10.37,2013-01-06 13:25:00,
2013-01-06 05:30:00,38.5,37.2,29.88,SE,135,0.0,0.0,95,0.00,CLR,,0.00,WeatherDisplay:10.37,2013-01-06 13:30:00,
2013-01-06 05:35:00,38.5,37.2,29.88,SE,135,0.0,0.0,95,0.00,CLR,,0.00,WeatherDisplay:10.37,2013-01-06 13:35:00,
2013-01-06 05:40:00,38.5,37.2,29.88,East,90,0.0,0.0,95,0.00,CLR,,0.00,WeatherDisplay:10.37,2013-01-06 13:40:00,
2013-01-06 05:45:00,38.5,37.2,29.88,SSW,202,0.0,0.0,95,0.00,CLR,,0.00,WeatherDisplay:10.37,2013-01-06 13:45:00,
2013-01-06 05:51:00,38.3,37.0,29.88,South,180,0.0,0.0,95,0.00,CLR,,0.00,WeatherDisplay:10.37,2013-01-06 13:51:00,
2013-01-06 05:56:00,38.3,37.0,29.88,South,180,0.0,0.0,95,0.00,CLR,,0.00,WeatherDisplay:10.37,2013-01-06 13:56:00,
2013-01-06 06:01:00,38.3,37.0,29.88,SSW,202,0.0,0.0,95,0.00,CLR,,0.00,WeatherDisplay:10.37,2013-01-06 14:01:00,
2013-01-06 06:06:00,38.3,37.0,29.88,South,180,0.0,0.0,95,0.00,CLR,,0.00,WeatherDisplay:10.37,2013-01-06 14:06:00,
2013-01-06 06:11:00,38.3,37.0,29.88,SSE,158,0.0,0.0,95,0.00,CLR,,0.00,WeatherDisplay:10.37,2013-01-06 14:11:00,
2013-01-06 06:16:00,38.3,37.0,29.88,SSE,158,0.0,0.0,95,0.00,CLR,,0.00,WeatherDisplay:10.37,2013-01-06 14:16:00,
2013-01-06 06:21:00,38.3,37.0,29.88,SSE,158,0.0,0.0,95,0.00,CLR,,0.00,WeatherDisplay:10.37,2013-01-06 14:21:00,
2013-01-06 06:26:00,38.3,37.0,29.88,SSE,158,0.0,0.0,95,0.00,CLR,,0.00,WeatherDisplay:10.37,2013-01-06 14:26:00,
2013-01-06 06:31:00,38.1,36.8,29.89,SSE,158,0.0,0.0,95,0.00,CLR,,0.00,WeatherDisplay:10.37,2013-01-06 14:31:00,
2013-01-06 06:36:00,38.1,36.8,29.88,SSE,158,0.0,0.0,95,0.00,CLR,,0.00,WeatherDisplay:10.37,2013-01-06 14:36:00,
2013-01-06 06:41:00,38.1,36.8,29.88,SSE,158,0.0,0.0,95,0.00,CLR,,0.00,WeatherDisplay:10.37,2013-01-06 14:41:00,
2013-01-06 06:46:00,37.9,36.6,29.88,SSE,158,0.0,0.0,95,0.00,CLR,,0.00,WeatherDisplay:10.37,2013-01-06 14:46:00,
2013-01-06 06:51:00,37.8,36.5,29.88,SSE,158,0.0,0.0,95,0.00,CLR,,0.00,WeatherDisplay:10.37,2013-01-06 14:51:00,
2013-01-06 06:57:00,37.4,36.1,29.88,South,180,0.0,0.0,95,0.00,CLR,,0.00,WeatherDisplay:10.37,2013-01-06 14:57:00,
2013-01-06 07:02:00,37.2,35.9,29.88,ESE,112,0.0,0.0,95,0.00,CLR,,0.00,WeatherDisplay:10.37,2013-01-06 15:02:00,
2013-01-06 07:07:00,37.0,35.7,29.88,ESE,112,0.0,0.0,95,0.00,CLR,,0.00,WeatherDisplay:10.37,2013-01-06 15:07:00,
2013-01-06 07:12:00,36.9,35.6,29.88,ESE,112,0.0,0.0,95,0.00,CLR,,0.00,WeatherDisplay:10.37,2013-01-06 15:12:00,
2013-01-06 07:17:00,36.9,35.6,29.88,ESE,112,0.0,0.0,95,0.00,CLR,,0.00,WeatherDisplay:10.37,2013-01-06 15:17:00,
2013-01-06 07:22:00,37.0,35.7,29.88,ESE,112,0.0,0.0,95,0.00,CLR,,0.00,WeatherDisplay:10.37,2013-01-06 15:22:00,
2013-01-06 07:27:00,37.2,35.9,29.88,ESE,112,0.0,0.0,95,0.00,CLR,,0.00,WeatherDisplay:10.37,2013-01-06 15:27:00,
2013-01-06 07:32:00,37.2,35.9,29.88,ESE,112,0.0,0.0,95,0.00,CLR,,0.00,WeatherDisplay:10.37,2013-01-06 15:32:00,
2013-01-06 07:37:00,37.2,35.9,29.89,SE,135,0.0,0.0,95,0.00,CLR,,0.00,WeatherDisplay:10.37,2013-01-06 15:37:00,
2013-01-06 07:42:00,37.4,36.1,29.89,SE,135,0.0,0.0,95,0.00,CLR,,0.00,WeatherDisplay:10.37,2013-01-06 15:42:00,
2013-01-06 07:47:00,37.6,36.3,29.89,SE,135,0.0,0.0,95,0.00,CLR,,0.00,WeatherDisplay:10.37,2013-01-06 15:47:00,
2013-01-06 07:52:00,37.6,36.3,29.90,SE,135,0.0,0.0,95,0.00,CLR,,0.00,WeatherDisplay:10.37,2013-01-06 15:52:00,
2013-01-06 07:57:00,37.8,36.5,29.90,SE,135,0.0,0.0,95,0.00,CLR,,0.00,WeatherDisplay:10.37,2013-01-06 15:57:00,
2013-01-06 08:02:00,37.8,36.5,29.90,SE,135,0.0,0.0,95,0.00,CLR,,0.00,WeatherDisplay:10.37,2013-01-06 16:02:00,
2013-01-06 08:07:00,37.9,36.6,29.91,SE,135,0.0,0.0,95,0.00,CLR,,0.00,WeatherDisplay:10.37,2013-01-06 16:07:00,
2013-01-06 08:12:00,37.9,36.6,29.91,ESE,112,0.0,0.0,95,0.00,CLR,,0.00,WeatherDisplay:10.37,2013-01-06 16:12:00,
2013-01-06 08:17:00,37.9,36.6,29.90,ESE,112,0.0,0.0,95,0.00,CLR,,0.00,WeatherDisplay:10.37,2013-01-06 16:17:00,
2013-01-06 08:22:00,37.9,36.6,29.90,ESE,112,0.0,0.0,95,0.00,CLR,,0.00,WeatherDisplay:10.37,2013-01-06 16:22:00,
2013-01-06 08:27:00,37.9,36.6,29.90,ESE,112,0.0,0.0,95,0.00,CLR,,0.00,WeatherDisplay:10.37,2013-01-06 16:27:00,
2013-01-06 08:32:00,37.9,36.6,29.90,ESE,112,0.0,0.0,95,0.00,CLR,,0.00,WeatherDisplay:10.37,2013-01-06 16:32:00,
2013-01-06 08:37:00,38.1,36.8,29.91,ESE,112,0.0,0.0,95,0.00,CLR,,0.00,WeatherDisplay:10.37,2013-01-06 16:37:00,
2013-01-06 08:42:00,38.1,36.8,29.91,ESE,112,0.0,0.0,95,0.00,CLR,,0.00,WeatherDisplay:10.37,2013-01-06 16:42:00,
2013-01-06 08:47:00,38.1,36.8,29.91,ESE,112,0.0,0.0,95,0.00,CLR,,0.00,WeatherDisplay:10.37,2013-01-06 16:47:00,
2013-01-06 08:52:00,38.1,36.8,29.91,ESE,112,0.0,0.0,95,0.00,CLR,,0.00,WeatherDisplay:10.37,2013-01-06 16:52:00,
2013-01-06 08:57:00,38.3,37.0,29.91,ESE,112,0.0,0.0,95,0.00,CLR,,0.00,WeatherDisplay:10.37,2013-01-06 16:57:00,
2013-01-06 09:02:00,38.5,37.2,29.91,ESE,112,0.0,0.0,95,0.00,CLR,,0.00,WeatherDisplay:10.37,2013-01-06 17:02:00,
2013-01-06 09:07:00,38.7,37.4,29.90,ESE,112,0.0,0.0,95,0.00,CLR,,0.00,WeatherDisplay:10.37,2013-01-06 17:07:00,
2013-01-06 09:12:00,38.8,37.5,29.90,ESE,112,0.0,0.0,95,0.00,CLR,,0.00,WeatherDisplay:10.37,2013-01-06 17:12:00,
2013-01-06 09:17:00,38.8,37.5,29.90,SSE,158,4.6,4.6,95,0.00,CLR,,0.00,WeatherDisplay:10.37,2013-01-06 17:17:00,
2013-01-06 09:22:00,39.0,37.7,29.91,SSE,158,0.0,0.0,95,0.00,CLR,,0.00,WeatherDisplay:10.37,2013-01-06 17:22:00,
2013-01-06 09:27:00,39.4,38.1,29.90,ENE,68,0.0,0.0,95,0.00,CLR,,0.00,WeatherDisplay:10.37,2013-01-06 17:27:00,
2013-01-06 09:32:00,39.6,38.2,29.91,ENE,68,0.0,0.0,95,0.00,CLR,,0.00,WeatherDisplay:10.37,2013-01-06 17:32:00,
2013-01-06 09:37:00,39.9,38.9,29.91,ESE,112,0.0,0.0,96,0.00,CLR,,0.00,WeatherDisplay:10.37,2013-01-06 17:37:00,
2013-01-06 09:42:00,40.3,39.2,29.91,SE,135,0.0,0.0,96,0.00,CLR,,0.00,WeatherDisplay:10.37,2013-01-06 17:42:00,
2013-01-06 09:47:00,40.6,39.6,29.91,SE,135,0.0,0.0,96,0.00,CLR,,0.00,WeatherDisplay:10.37,2013-01-06 17:47:00,
2013-01-06 09:52:00,40.8,39.8,29.91,SE,135,0.0,0.0,96,0.00,CLR,,0.00,WeatherDisplay:10.37,2013-01-06 17:52:00,
2013-01-06 09:57:00,41.0,39.9,29.92,SE,135,0.0,0.0,96,0.00,CLR,,0.00,WeatherDisplay:10.37,2013-01-06 17:57:00,
2013-01-06 10:02:00,41.2,40.1,29.92,SSE,158,0.0,0.0,96,0.00,CLR,,0.00,WeatherDisplay:10.37,2013-01-06 18:02:00,
2013-01-06 10:07:00,41.4,40.0,29.92,SE,135,0.0,0.0,95,0.00,CLR,,0.00,WeatherDisplay:10.37,2013-01-06 18:07:00,
2013-01-06 10:12:00,41.4,40.0,29.91,SE,135,0.0,0.0,95,0.00,CLR,,0.00,WeatherDisplay:10.37,2013-01-06 18:12:00,
2013-01-06 10:17:00,41.5,40.2,29.92,SSE,158,0.0,0.0,95,0.00,CLR,,0.00,WeatherDisplay:10.37,2013-01-06 18:17:00,
2013-01-06 10:22:00,41.7,40.4,29.92,East,90,0.0,0.0,95,0.00,CLR,,0.00,WeatherDisplay:10.37,2013-01-06 18:22:00,
2013-01-06 10:27:00,41.9,40.6,29.92,East,90,0.0,0.0,95,0.00,CLR,,0.00,WeatherDisplay:10.37,2013-01-06 18:27:00,
2013-01-06 10:32:00,42.1,40.8,29.92,SE,135,0.0,0.0,95,0.00,CLR,,0.00,WeatherDisplay:10.37,2013-01-06 18:32:00,
2013-01-06 10:37:00,42.4,41.1,29.92,SE,135,1.2,1.2,95,0.00,CLR,,0.00,WeatherDisplay:10.37,2013-01-06 18:37:00,
2013-01-06 10:42:00,42.6,41.3,29.92,SE,135,0.0,0.0,95,0.00,CLR,,0.00,WeatherDisplay:10.37,2013-01-06 18:42:00,
2013-01-06 10:47:00,42.6,41.3,29.92,ESE,112,2.3,2.3,95,0.00,CLR,,0.00,WeatherDisplay:10.37,2013-01-06 18:47:00,
2013-01-06 10:52:00,42.6,41.3,29.91,SSE,158,5.8,5.8,95,0.00,CLR,,0.00,WeatherDisplay:10.37,2013-01-06 18:52:00,
2013-01-06 10:57:00,43.0,41.6,29.91,South,180,1.6,1.6,95,0.00,CLR,,0.00,WeatherDisplay:10.37,2013-01-06 18:57:00,
2013-01-06 11:02:00,43.0,41.4,29.91,South,180,0.0,0.0,94,0.00,CLR,,0.00,WeatherDisplay:10.37,2013-01-06 19:02:00,
2013-01-06 11:07:00,43.0,41.4,29.91,SSE,158,0.0,0.0,94,0.00,CLR,,0.00,WeatherDisplay:10.37,2013-01-06 19:07:00,
2013-01-06 11:12:00,43.0,41.4,29.91,East,90,0.0,0.0,94,0.00,CLR,,0.00,WeatherDisplay:10.37,2013-01-06 19:12:00,
2013-01-06 11:17:00,43.0,41.4,29.90,East,90,0.0,0.0,94,0.00,CLR,,0.00,WeatherDisplay:10.37,2013-01-06 19:17:00,
2013-01-06 11:22:00,43.0,41.4,29.90,East,90,0.0,0.0,94,0.00,CLR,,0.00,WeatherDisplay:10.37,2013-01-06 19:22:00,
2013-01-06 11:27:00,43.0,41.4,29.90,ESE,112,0.0,0.0,94,0.00,CLR,,0.00,WeatherDisplay:10.37,2013-01-06 19:27:00,
2013-01-06 11:32:00,43.0,41.4,29.90,SE,135,0.0,0.0,94,0.00,CLR,,0.00,WeatherDisplay:10.37,2013-01-06 19:32:00,
2013-01-06 11:37:00,43.0,41.1,29.90,SSW,202,0.0,0.0,93,0.00,CLR,,0.00,WeatherDisplay:10.37,2013-01-06 19:37:00,
2013-01-06 11:47:00,43.3,41.5,29.89,SSW,202,0.0,0.0,93,0.00,CLR,,0.00,WeatherDisplay:10.37,2013-01-06 19:47:00,
2013-01-06 11:53:00,43.5,41.9,29.88,SSW,202,0.0,0.0,94,0.00,CLR,,0.00,WeatherDisplay:10.37,2013-01-06 19:53:00,
2013-01-06 12:00:00,43.9,42.0,29.88,SE,135,0.0,0.0,93,0.00,CLR,,0.00,WeatherDisplay:10.37,2013-01-06 20:00:00,
2013-01-06 12:05:00,43.9,42.0,29.87,SSE,158,0.0,0.0,93,0.00,CLR,,0.00,WeatherDisplay:10.37,2013-01-06 20:05:00,
2013-01-06 12:11:00,44.1,42.2,29.87,SSE,158,0.0,0.0,93,0.00,CLR,,0.00,WeatherDisplay:10.37,2013-01-06 20:11:00,
2013-01-06 12:16:00,44.1,42.2,29.87,South,180,0.0,0.0,93,0.00,CLR,,0.00,WeatherDisplay:10.37,2013-01-06 20:16:00,
2013-01-06 12:21:00,44.2,42.3,29.88,South,180,2.3,2.3,93,0.00,CLR,,0.00,WeatherDisplay:10.37,2013-01-06 20:21:00,
2013-01-06 12:27:00,44.2,42.1,29.87,ESE,112,2.0,2.0,92,0.00,CLR,,0.00,WeatherDisplay:10.37,2013-01-06 20:27:00,
2013-01-06 12:32:00,44.2,42.1,29.87,SE,135,0.0,0.0,92,0.00,CLR,,0.00,WeatherDisplay:10.37,2013-01-06 20:32:00,
2013-01-06 12:37:00,44.2,42.1,29.87,SE,135,0.0,0.0,92,0.00,CLR,,0.00,WeatherDisplay:10.37,2013-01-06 20:37:00,
2013-01-06 12:42:00,44.4,42.2,29.87,SE,135,0.0,0.0,92,0.00,CLR,,0.00,WeatherDisplay:10.37,2013-01-06 20:42:00,
2013-01-06 12:47:00,44.4,42.2,29.87,SE,135,0.0,0.0,92,0.00,CLR,,0.00,WeatherDisplay:10.37,2013-01-06 20:47:00,
2013-01-06 12:52:00,44.4,42.0,29.87,East,90,1.2,1.2,91,0.00,CLR,,0.00,WeatherDisplay:10.37,2013-01-06 20:52:00,
2013-01-06 12:57:00,44.4,42.0,29.87,South,180,0.0,0.0,91,0.00,CLR,,0.00,WeatherDisplay:10.37,2013-01-06 20:57:00,
2013-01-06 13:03:00,44.4,42.0,29.87,South,180,0.0,0.0,91,0.00,CLR,,0.00,WeatherDisplay:10.37,2013-01-06 21:03:00,
2013-01-06 13:08:00,44.4,42.0,29.87,South,180,0.0,0.0,91,0.00,CLR,,0.00,WeatherDisplay:10.37,2013-01-06 21:08:00,
2013-01-06 13:13:00,44.6,42.1,29.86,South,180,0.0,0.0,91,0.00,CLR,,0.00,WeatherDisplay:10.37,2013-01-06 21:13:00,
2013-01-06 13:18:00,44.4,42.0,29.86,South,180,0.0,0.0,91,0.00,CLR,,0.00,WeatherDisplay:10.37,2013-01-06 21:18:00,
2013-01-06 13:23:00,44.4,42.0,29.86,South,180,0.0,0.0,91,0.00,CLR,,0.00,WeatherDisplay:10.37,2013-01-06 21:23:00,
2013-01-06 13:29:00,44.6,42.1,29.86,South,180,0.0,0.0,91,0.00,CLR,,0.00,WeatherDisplay:10.37,2013-01-06 21:29:00,
2013-01-06 13:35:00,44.4,42.0,29.86,South,180,0.0,0.0,91,0.00,CLR,,0.00,WeatherDisplay:10.37,2013-01-06 21:35:00,
2013-01-06 13:40:00,44.4,42.2,29.85,South,180,0.0,0.0,92,0.00,CLR,,0.00,WeatherDisplay:10.37,2013-01-06 21:40:00,
2013-01-06 13:45:00,44.4,42.2,29.85,South,180,0.0,0.0,92,0.00,CLR,,0.00,WeatherDisplay:10.37,2013-01-06 21:45:00,
2013-01-06 13:50:00,44.2,42.1,29.85,South,180,0.0,0.0,92,0.00,CLR,,0.00,WeatherDisplay:10.37,2013-01-06 21:50:00,
2013-01-06 13:55:00,44.2,42.1,29.85,South,180,0.0,0.0,92,0.00,CLR,,0.00,WeatherDisplay:10.37,2013-01-06 21:55:00,
2013-01-06 14:00:00,44.4,42.2,29.85,South,180,0.0,0.0,92,0.00,CLR,,0.00,WeatherDisplay:10.37,2013-01-06 22:00:00,
2013-01-06 14:05:00,44.2,42.1,29.85,ESE,112,0.0,0.0,92,0.00,CLR,,0.04,WeatherDisplay:10.37,2013-01-06 22:05:00,
2013-01-06 14:10:00,44.2,42.1,29.85,ESE,112,0.0,0.0,92,0.04,RA,,0.04,WeatherDisplay:10.37,2013-01-06 22:10:00,
2013-01-06 14:15:00,44.1,41.9,29.85,ESE,112,0.0,0.0,92,0.04,RA,,0.04,WeatherDisplay:10.37,2013-01-06 22:15:00,
2013-01-06 14:20:00,43.9,41.7,29.85,ESE,112,0.0,0.0,92,0.04,CLR,,0.04,WeatherDisplay:10.37,2013-01-06 22:20:00,
2013-01-06 14:25:00,43.9,41.7,29.85,ESE,112,0.0,0.0,92,0.04,CLR,,0.04,WeatherDisplay:10.37,2013-01-06 22:25:00,
2013-01-06 14:31:00,43.9,42.0,29.85,ESE,112,0.0,0.0,93,0.04,CLR,,0.04,WeatherDisplay:10.37,2013-01-06 22:31:00,
2013-01-06 14:36:00,43.7,41.8,29.85,ESE,112,0.0,0.0,93,0.04,CLR,,0.04,WeatherDisplay:10.37,2013-01-06 22:36:00,
2013-01-06 14:41:00,43.5,41.6,29.85,ESE,112,0.0,0.0,93,0.04,CLR,,0.04,WeatherDisplay:10.37,2013-01-06 22:41:00,
2013-01-06 14:46:00,43.5,41.6,29.85,ESE,112,0.0,0.0,93,0.04,CLR,,0.04,WeatherDisplay:10.37,2013-01-06 22:46:00,
2013-01-06 14:51:00,43.5,41.6,29.85,ESE,112,0.0,0.0,93,0.04,CLR,,0.04,WeatherDisplay:10.37,2013-01-06 22:51:00,
2013-01-06 14:56:00,43.5,41.6,29.85,ESE,112,0.0,0.0,93,0.04,CLR,,0.04,WeatherDisplay:10.37,2013-01-06 22:56:00,
2013-01-06 15:01:00,43.3,41.5,29.85,ESE,112,0.0,0.0,93,0.04,CLR,,0.04,WeatherDisplay:10.37,2013-01-06 23:01:00,
2013-01-06 15:06:00,43.3,41.5,29.84,ESE,112,0.0,0.0,93,0.00,CLR,,0.04,WeatherDisplay:10.37,2013-01-06 23:06:00,
2013-01-06 15:11:00,43.5,41.6,29.83,ESE,112,0.0,0.0,93,0.00,CLR,,0.04,WeatherDisplay:10.37,2013-01-06 23:11:00,
2013-01-06 15:16:00,43.5,41.6,29.83,ESE,112,0.0,0.0,93,0.00,CLR,,0.04,WeatherDisplay:10.37,2013-01-06 23:16:00,
2013-01-06 15:21:00,43.5,41.6,29.83,SE,135,0.0,0.0,93,0.00,CLR,,0.04,WeatherDisplay:10.37,2013-01-06 23:21:00,
2013-01-06 15:26:00,43.3,41.5,29.83,SE,135,0.0,0.0,93,0.00,CLR,,0.04,WeatherDisplay:10.37,2013-01-06 23:26:00,
2013-01-06 15:31:00,43.3,41.5,29.83,SE,135,0.0,0.0,93,0.00,CLR,,0.04,WeatherDisplay:10.37,2013-01-06 23:31:00,
2013-01-06 15:36:00,43.2,41.3,29.83,SE,135,0.0,0.0,93,0.00,CLR,,0.04,WeatherDisplay:10.37,2013-01-06 23:36:00,
2013-01-06 15:41:00,43.0,41.1,29.83,SE,135,0.0,0.0,93,0.00,CLR,,0.04,WeatherDisplay:10.37,2013-01-06 23:41:00,
2013-01-06 15:46:00,43.0,41.1,29.83,SE,135,0.0,0.0,93,0.00,CLR,,0.04,WeatherDisplay:10.37,2013-01-06 23:46:00,
2013-01-06 15:51:00,43.0,41.1,29.83,SE,135,0.0,0.0,93,0.00,CLR,,0.04,WeatherDisplay:10.37,2013-01-06 23:51:00,
2013-01-06 15:56:00,42.6,40.7,29.83,SE,135,0.0,0.0,93,0.00,CLR,,0.04,WeatherDisplay:10.37,2013-01-06 23:56:00,
2013-01-06 16:01:00,42.6,40.7,29.83,SE,135,0.0,0.0,93,0.00,CLR,,0.04,WeatherDisplay:10.37,2013-01-07 00:01:00,
2013-01-06 16:06:00,42.6,40.7,29.83,SE,135,0.0,0.0,93,0.00,CLR,,0.04,WeatherDisplay:10.37,2013-01-07 00:06:00,
2013-01-06 16:11:00,42.6,40.7,29.83,SE,135,0.0,0.0,93,0.00,CLR,,0.04,WeatherDisplay:10.37,2013-01-07 00:11:00,
2013-01-06 16:16:00,42.6,40.7,29.83,SE,135,0.0,0.0,93,0.00,CLR,,0.04,WeatherDisplay:10.37,2013-01-07 00:16:00,
2013-01-06 16:21:00,42.4,40.6,29.83,SE,135,0.0,0.0,93,0.00,CLR,,0.04,WeatherDisplay:10.37,2013-01-07 00:21:00,
2013-01-06 16:27:00,42.4,40.6,29.83,SE,135,0.0,0.0,93,0.00,CLR,,0.04,WeatherDisplay:10.37,2013-01-07 00:27:00,
2013-01-06 16:32:00,42.3,40.4,29.83,SE,135,0.0,0.0,93,0.00,CLR,,0.04,WeatherDisplay:10.37,2013-01-07 00:32:00,
2013-01-06 16:37:00,42.1,40.2,29.83,SE,135,0.0,0.0,93,0.00,CLR,,0.04,WeatherDisplay:10.37,2013-01-07 00:37:00,
2013-01-06 16:42:00,42.1,40.2,29.83,SE,135,0.0,0.0,93,0.00,CLR,,0.04,WeatherDisplay:10.37,2013-01-07 00:42:00,
2013-01-06 16:48:00,41.9,40.3,29.82,SE,135,0.0,0.0,94,0.00,CLR,,0.04,WeatherDisplay:10.37,2013-01-07 00:48:00,
2013-01-06 16:53:00,41.9,40.3,29.82,SE,135,0.0,0.0,94,0.00,CLR,,0.04,WeatherDisplay:10.37,2013-01-07 00:53:00,
2013-01-06 16:59:00,41.7,40.1,29.82,SE,135,0.0,0.0,94,0.00,CLR,,0.04,WeatherDisplay:10.37,2013-01-07 00:59:00,
2013-01-06 17:04:00,41.7,40.1,29.82,SE,135,0.0,0.0,94,0.00,CLR,,0.04,WeatherDisplay:10.37,2013-01-07 01:04:00,
2013-01-06 17:09:00,41.7,40.1,29.81,SE,135,0.0,0.0,94,0.00,CLR,,0.04,WeatherDisplay:10.37,2013-01-07 01:09:00,
2013-01-06 17:14:00,41.5,39.9,29.81,SE,135,0.0,0.0,94,0.00,CLR,,0.04,WeatherDisplay:10.37,2013-01-07 01:14:00,
2013-01-06 17:19:00,41.5,39.9,29.81,SE,135,0.0,0.0,94,0.00,CLR,,0.04,WeatherDisplay:10.37,2013-01-07 01:19:00,
2013-01-06 17:24:00,41.5,39.9,29.80,SE,135,0.0,0.0,94,0.00,CLR,,0.04,WeatherDisplay:10.37,2013-01-07 01:24:00,
2013-01-06 17:29:00,41.5,39.9,29.82,SE,135,0.0,0.0,94,0.00,CLR,,0.04,WeatherDisplay:10.37,2013-01-07 01:29:00,
2013-01-06 17:34:00,41.5,39.9,29.81,SE,135,0.0,0.0,94,0.00,CLR,,0.04,WeatherDisplay:10.37,2013-01-07 01:34:00,
2013-01-06 17:39:00,41.5,39.9,29.81,SE,135,0.0,0.0,94,0.00,CLR,,0.04,WeatherDisplay:10.37,2013-01-07 01:39:00,
2013-01-06 17:44:00,41.5,39.9,29.81,SE,135,0.0,0.0,94,0.00,CLR,,0.04,WeatherDisplay:10.37,2013-01-07 01:44:00,
2013-01-06 17:49:00,41.4,39.8,29.81,SE,135,0.0,0.0,94,0.00,CLR,,0.04,WeatherDisplay:10.37,2013-01-07 01:49:00,
2013-01-06 17:54:00,41.4,39.8,29.80,SE,135,0.0,0.0,94,0.00,CLR,,0.04,WeatherDisplay:10.37,2013-01-07 01:54:00,
2013-01-06 17:59:00,41.4,39.8,29.80,SE,135,0.0,0.0,94,0.00,CLR,,0.04,WeatherDisplay:10.37,2013-01-07 01:59:00,
2013-01-06 18:04:00,41.4,39.8,29.80,SE,135,0.0,0.0,94,0.00,CLR,,0.04,WeatherDisplay:10.37,2013-01-07 02:04:00,
2013-01-06 18:09:00,41.4,39.8,29.80,SE,135,0.0,0.0,94,0.00,CLR,,0.04,WeatherDisplay:10.37,2013-01-07 02:09:00,
2013-01-06 18:14:00,41.4,39.8,29.81,SE,135,0.0,0.0,94,0.00,CLR,,0.04,WeatherDisplay:10.37,2013-01-07 02:14:00,
2013-01-06 18:19:00,41.2,39.6,29.81,SE,135,0.0,0.0,94,0.00,CLR,,0.04,WeatherDisplay:10.37,2013-01-07 02:19:00,
2013-01-06 18:24:00,41.2,39.6,29.81,SE,135,0.0,0.0,94,0.00,CLR,,0.04,WeatherDisplay:10.37,2013-01-07 02:24:00,
2013-01-06 18:29:00,41.2,39.6,29.81,SE,135,0.0,0.0,94,0.00,CLR,,0.04,WeatherDisplay:10.37,2013-01-07 02:29:00,
2013-01-06 18:34:00,41.2,39.6,29.81,SSW,202,0.0,0.0,94,0.00,CLR,,0.04,WeatherDisplay:10.37,2013-01-07 02:34:00,
2013-01-06 18:40:00,41.2,39.6,29.81,SSW,202,0.0,0.0,94,0.02,RA,,0.06,WeatherDisplay:10.37,2013-01-07 02:40:00,
2013-01-06 18:45:00,41.2,39.6,29.81,ENE,68,0.0,0.0,94,0.02,RA,,0.06,WeatherDisplay:10.37,2013-01-07 02:45:00,
2013-01-06 18:50:00,41.2,39.6,29.81,ENE,68,0.0,0.0,94,0.02,,,0.06,WeatherDisplay:10.37,2013-01-07 02:50:00,
2013-01-06 18:55:00,41.2,39.6,29.80,ENE,68,0.0,0.0,94,0.02,CLR,,0.06,WeatherDisplay:10.37,2013-01-07 02:55:00,
2013-01-06 19:00:00,41.2,39.6,29.81,ENE,68,0.0,0.0,94,0.02,CLR,,0.06,WeatherDisplay:10.37,2013-01-07 03:00:00,
2013-01-06 19:05:00,41.2,39.6,29.81,ENE,68,0.0,0.0,94,0.02,CLR,,0.06,WeatherDisplay:10.37,2013-01-07 03:05:00,
2013-01-06 19:10:00,41.0,39.4,29.81,ENE,68,0.0,0.0,94,0.02,CLR,,0.06,WeatherDisplay:10.37,2013-01-07 03:10:00,
2013-01-06 19:15:00,41.0,39.4,29.81,ENE,68,0.0,0.0,94,0.02,CLR,,0.06,WeatherDisplay:10.37,2013-01-07 03:15:00,
2013-01-06 19:20:00,41.0,39.4,29.81,ENE,68,0.0,0.0,94,0.02,CLR,,0.06,WeatherDisplay:10.37,2013-01-07 03:20:00,
2013-01-06 19:25:00,40.8,39.2,29.80,ENE,68,0.0,0.0,94,0.02,CLR,,0.06,WeatherDisplay:10.37,2013-01-07 03:25:00,
2013-01-06 19:30:00,40.8,39.2,29.80,ENE,68,0.0,0.0,94,0.02,CLR,,0.06,WeatherDisplay:10.37,2013-01-07 03:30:00,
2013-01-06 19:35:00,40.8,39.2,29.80,ENE,68,0.0,0.0,94,0.02,CLR,,0.06,WeatherDisplay:10.37,2013-01-07 03:35:00,
2013-01-06 19:40:00,40.8,39.2,29.80,ENE,68,0.0,0.0,94,0.04,RA,,0.10,WeatherDisplay:10.37,2013-01-07 03:40:00,
2013-01-06 19:45:00,40.8,39.2,29.80,ENE,68,0.0,0.0,94,0.04,RA,,0.10,WeatherDisplay:10.37,2013-01-07 03:45:00,
2013-01-06 19:50:00,40.8,39.2,29.80,ENE,68,0.0,0.0,94,0.04,,,0.10,WeatherDisplay:10.37,2013-01-07 03:50:00,
2013-01-06 19:55:00,40.8,39.2,29.80,ENE,68,0.0,0.0,94,0.04,CLR,,0.10,WeatherDisplay:10.37,2013-01-07 03:55:00,
2013-01-06 20:00:00,40.8,39.5,29.80,ENE,68,0.0,0.0,95,0.04,CLR,,0.10,WeatherDisplay:10.37,2013-01-07 04:00:00,
2013-01-06 20:05:00,40.8,39.5,29.80,ENE,68,0.0,0.0,95,0.04,CLR,,0.10,WeatherDisplay:10.37,2013-01-07 04:05:00,
2013-01-06 20:10:00,40.8,39.5,29.79,ENE,68,0.0,0.0,95,0.04,CLR,,0.10,WeatherDisplay:10.37,2013-01-07 04:10:00,
2013-01-06 20:15:00,40.8,39.5,29.80,ENE,68,0.0,0.0,95,0.04,CLR,,0.10,WeatherDisplay:10.37,2013-01-07 04:15:00,
2013-01-06 20:20:00,40.8,39.5,29.80,ENE,68,0.0,0.0,95,0.04,CLR,,0.10,WeatherDisplay:10.37,2013-01-07 04:20:00,
2013-01-06 20:25:00,40.8,39.5,29.80,ENE,68,0.0,0.0,95,0.06,RA,,0.12,WeatherDisplay:10.37,2013-01-07 04:25:00,
2013-01-06 20:30:00,40.6,39.3,29.80,ENE,68,0.0,0.0,95,0.06,RA,,0.12,WeatherDisplay:10.37,2013-01-07 04:30:00,
2013-01-06 20:35:00,40.6,39.3,29.80,SE,135,0.0,0.0,95,0.06,CLR,,0.12,WeatherDisplay:10.37,2013-01-07 04:35:00,
2013-01-06 20:40:00,40.6,39.3,29.79,East,90,0.0,0.0,95,0.02,CLR,,0.12,WeatherDisplay:10.37,2013-01-07 04:40:00,
2013-01-06 20:45:00,40.6,39.3,29.79,ESE,112,0.0,0.0,95,0.02,CLR,,0.12,WeatherDisplay:10.37,2013-01-07 04:45:00,
2013-01-06 20:50:00,40.5,39.1,29.79,ESE,112,0.0,0.0,95,0.02,CLR,,0.12,WeatherDisplay:10.37,2013-01-07 04:50:00,
2013-01-06 20:55:00,40.5,39.1,29.79,ESE,112,0.0,0.0,95,0.02,CLR,,0.12,WeatherDisplay:10.37,2013-01-07 04:55:00,
2013-01-06 21:00:00,40.5,39.1,29.78,SE,135,0.0,0.0,95,0.06,RA,,0.16,WeatherDisplay:10.37,2013-01-07 05:00:00,
2013-01-06 21:05:00,40.3,39.0,29.78,SE,135,0.0,0.0,95,0.06,RA,,0.16,WeatherDisplay:10.37,2013-01-07 05:05:00,
2013-01-06 21:09:00,40.3,39.0,29.78,SE,135,0.0,0.0,95,0.06,CLR,,0.16,WeatherDisplay:10.37,2013-01-07 05:09:00,
2013-01-06 21:14:00,40.3,39.0,29.77,ESE,112,0.0,0.0,95,0.06,CLR,,0.16,WeatherDisplay:10.37,2013-01-07 05:14:00,
2013-01-06 21:19:00,40.3,39.0,29.78,SSE,158,0.0,0.0,95,0.06,CLR,,0.16,WeatherDisplay:10.37,2013-01-07 05:19:00,
2013-01-06 21:24:00,40.1,38.8,29.76,ESE,112,1.1,1.1,95,0.04,CLR,,0.16,WeatherDisplay:10.37,2013-01-07 05:24:00,
2013-01-06 21:29:00,39.9,38.6,29.76,East,90,1.2,0.0,95,0.04,CLR,,0.16,WeatherDisplay:10.37,2013-01-07 05:29:00,
2013-01-06 21:34:00,39.9,38.6,29.76,ENE,68,0.0,0.0,95,0.04,CLR,,0.16,WeatherDisplay:10.37,2013-01-07 05:34:00,
2013-01-06 21:39:00,39.9,38.6,29.76,ENE,68,0.0,0.0,95,0.04,CLR,,0.16,WeatherDisplay:10.37,2013-01-07 05:39:00,
2013-01-06 21:44:00,39.7,38.4,29.76,SSE,158,0.0,0.0,95,0.04,CLR,,0.16,WeatherDisplay:10.37,2013-01-07 05:44:00,
2013-01-06 21:49:00,39.6,38.2,29.75,SE,135,0.0,0.0,95,0.04,CLR,,0.16,WeatherDisplay:10.37,2013-01-07 05:49:00,
2013-01-06 21:54:00,39.6,38.2,29.75,SSE,158,2.2,2.2,95,0.04,CLR,,0.16,WeatherDisplay:10.37,2013-01-07 05:54:00,
2013-01-06 21:59:00,39.4,38.1,29.75,SE,135,2.3,2.3,95,0.00,CLR,,0.16,WeatherDisplay:10.37,2013-01-07 05:59:00,
2013-01-06 22:04:00,39.4,38.1,29.75,SE,135,0.0,0.0,95,0.00,CLR,,0.16,WeatherDisplay:10.37,2013-01-07 06:04:00,
2013-01-06 22:09:00,39.4,38.1,29.74,SE,135,0.0,0.0,95,0.00,CLR,,0.16,WeatherDisplay:10.37,2013-01-07 06:09:00,
2013-01-06 22:14:00,39.4,38.1,29.74,SE,135,0.0,0.0,95,0.00,CLR,,0.16,WeatherDisplay:10.37,2013-01-07 06:14:00,
2013-01-06 22:19:00,39.4,38.1,29.74,SSE,158,0.0,0.0,95,0.00,CLR,,0.16,WeatherDisplay:10.37,2013-01-07 06:19:00,
2013-01-06 22:24:00,39.2,37.9,29.74,SSE,158,0.0,0.0,95,0.00,CLR,,0.16,WeatherDisplay:10.37,2013-01-07 06:24:00,
2013-01-06 22:29:00,39.0,37.7,29.74,SSE,158,0.0,0.0,95,0.00,CLR,,0.16,WeatherDisplay:10.37,2013-01-07 06:29:00,
2013-01-06 22:34:00,39.0,37.7,29.74,SSE,158,0.0,0.0,95,0.00,CLR,,0.16,WeatherDisplay:10.37,2013-01-07 06:34:00,
2013-01-06 22:39:00,39.2,37.9,29.74,SSE,158,0.0,0.0,95,0.00,CLR,,0.16,WeatherDisplay:10.37,2013-01-07 06:39:00,
2013-01-06 22:44:00,39.0,37.7,29.74,SSE,158,0.0,0.0,95,0.00,CLR,,0.16,WeatherDisplay:10.37,2013-01-07 06:44:00,
2013-01-06 22:49:00,39.0,37.7,29.74,SSE,158,0.0,0.0,95,0.00,CLR,,0.16,WeatherDisplay:10.37,2013-01-07 06:49:00,
2013-01-06 22:54:00,39.0,37.7,29.73,SSE,158,0.0,0.0,95,0.00,CLR,,0.16,WeatherDisplay:10.37,2013-01-07 06:54:00,
2013-01-06 22:59:00,39.0,37.7,29.72,SSE,158,0.0,0.0,95,0.00,CLR,,0.16,WeatherDisplay:10.37,2013-01-07 06:59:00,
2013-01-06 23:04:00,39.0,37.7,29.72,SSE,158,0.0,0.0,95,0.00,CLR,,0.16,WeatherDisplay:10.37,2013-01-07 07:04:00,
2013-01-06 23:09:00,39.2,37.9,29.72,SSE,158,0.0,0.0,95,0.00,CLR,,0.16,WeatherDisplay:10.37,2013-01-07 07:09:00,
2013-01-06 23:14:00,39.2,37.9,29.72,SSE,158,0.0,0.0,95,0.00,CLR,,0.18,WeatherDisplay:10.37,2013-01-07 07:14:00,
2013-01-06 23:19:00,39.0,37.7,29.72,SSE,158,0.0,0.0,95,0.02,RA,,0.18,WeatherDisplay:10.37,2013-01-07 07:19:00,
2013-01-06 23:24:00,39.0,37.7,29.72,SSE,158,0.0,0.0,95,0.02,RA,,0.18,WeatherDisplay:10.37,2013-01-07 07:24:00,
2013-01-06 23:29:00,39.0,37.7,29.72,SSE,158,0.0,0.0,95,0.02,CLR,,0.18,WeatherDisplay:10.37,2013-01-07 07:29:00,
2013-01-06 23:34:00,39.2,37.9,29.72,SSE,158,0.0,0.0,95,0.02,CLR,,0.18,WeatherDisplay:10.37,2013-01-07 07:34:00,
2013-01-06 23:39:00,39.2,37.9,29.72,SSE,158,0.0,0.0,95,0.02,CLR,,0.18,WeatherDisplay:10.37,2013-01-07 07:39:00,
2013-01-06 23:44:00,39.4,38.1,29.72,SSE,158,0.0,0.0,95,0.02,CLR,,0.18,WeatherDisplay:10.37,2013-01-07 07:44:00,
2013-01-06 23:49:00,39.4,38.1,29.72,SSE,158,0.0,0.0,95,0.06,RA,,0.22,WeatherDisplay:10.37,2013-01-07 07:49:00,
2013-01-06 23:54:00,39.4,38.1,29.72,SSE,158,0.0,0.0,95,0.06,RA,,0.22,WeatherDisplay:10.37,2013-01-07 07:54:00,
2013-01-06 23:59:00,39.4,38.1,29.72,SSE,158,0.0,0.0,95,0.06,,,0.22,WeatherDisplay:10.37,2013-01-07 07:59:00,